ZGSZZSOF

Guest
Details From ZGSZ - Baoan Intl
To ZSOF - Luogang
Flight Number -
Tags Generated
Created
Modified
Stats Distance 580 nm / 1,074 km
Max Altitude 0 ft / 0 m
Waypoints 3
Social Downloads 0
Likes 0
Share VATSIM

Download

Looking for another format? Having issues loading an existing format? Contact us
Advertisement - Login to hide

Notes

Generated

Route

ZGSZ HFE ZSOF

ID Type Via Altitude Latitude Longitude Leg Dist Tot Dist Heading (true) Name
O ZGSZ APT - 0 ft / 0 m 22.65296˚ 113.80315˚ - 0 nm - -
HFE VOR - 0 ft / 0 m 31.78000˚ 117.30167˚ 579 nm 579 nm 18° / 20° HEFEI VOR-DME
O ZSOF APT - 0 ft / 0 m 31.78964˚ 117.28757˚ 0 nm 579 nm 309° / 309° -

Altitude Profile

Advertisement - Login to hide

Weather


0- 5 10 15 20 25 30 35+ Temperature / ° C

Clouds and Precipitation
Forecast for 2017-12-13 00:00 UTC. Updated an hour ago

Ground ~20,000 ft ~40,000 ft Winds

ZGSZ

Details ICAO ZGSZ (SZX)
Name BAOAN INTL
Region China
Timezone Asia/Shanghai (UTC+8.0)
Stats Elevation 13 ft / 4 m (AMSL)
Location 22.639259° 113.810663°
Runways 1
Magnetic Variation 2.861° W

METAR

ZGSZ 130000Z 36002MPS 9999 BKN050 18/12 Q1019 NOSIG

Decode

TAF

Not found

Departure Runways

ID Width Length Bearing (true) Bearing (mag) Surface Threshold Offset Overrun Length
15 148 ft / 45 m 11,209 ft / 3,416 m 153.15° 156.01° Concrete 0 ft / 0 m 197 ft / 60 m
33 148 ft / 45 m 11,209 ft / 3,416 m 333.15° 336.01° Concrete 0 ft / 0 m 197 ft / 60 m

ZSOF

Details ICAO ZSOF (HFE)
Name LUOGANG
Region China
Timezone Asia/Shanghai (UTC+8.0)
Stats Elevation 108 ft / 33 m (AMSL)
Location 31.780018° 117.298714°
Runways 1
Magnetic Variation 5.278° W

METAR

ZSOF 130000Z 07004MPS 040V100 CAVOK 04/M01 Q1028 NOSIG

Decode

TAF

Not found

Destination Runways

ID Width Length Bearing (true) Bearing (mag) Surface Threshold Offset Overrun Length
14 164 ft / 50 m 9,853 ft / 3,003 m 135.43° 140.71° Concrete 0 ft / 0 m 165 ft / 50 m
32 164 ft / 50 m 9,853 ft / 3,003 m 315.44° 320.72° Concrete 0 ft / 0 m 165 ft / 50 m

Approach Navaids

Runway Type Ident Frequency Range Bearing (true) Bearing (mag) Slope Elevation
14 Localiser ISB 109.10 MHz 18 nm / 33 km 135.61° 140.88° - 108 ft / 33 m (AMSL)
14 Glidescope ISB 109.10 MHz 10 nm / 19 km 135.43° 140.71° 3.00° 108 ft / 33 m (AMSL)
32 Localiser IGV 108.30 MHz 18 nm / 33 km 315.35° 320.63° - 108 ft / 33 m (AMSL)
32 Glidescope IGV 108.30 MHz 10 nm / 19 km 315.43° 320.71° 3.00° 108 ft / 33 m (AMSL)